sensor_id;sensor_type;location;lat;lon;timestamp;temperature;humidity
35240;DHT22;21376;50.954;4.716;2023-10-13T00:02:02;18.00;99.90
35240;DHT22;21376;50.954;4.716;2023-10-13T00:04:33;18.00;99.90
35240;DHT22;21376;50.954;4.716;2023-10-13T00:07:04;18.10;99.90
35240;DHT22;21376;50.954;4.716;2023-10-13T00:09:34;18.10;99.90
35240;DHT22;21376;50.954;4.716;2023-10-13T00:12:04;18.00;99.90
35240;DHT22;21376;50.954;4.716;2023-10-13T00:14:39;18.10;99.90
35240;DHT22;21376;50.954;4.716;2023-10-13T00:17:09;18.20;99.90
35240;DHT22;21376;50.954;4.716;2023-10-13T00:19:44;18.20;99.90
35240;DHT22;21376;50.954;4.716;2023-10-13T00:25:31;18.30;99.90
35240;DHT22;21376;50.954;4.716;2023-10-13T00:28:11;18.20;99.90
35240;DHT22;21376;50.954;4.716;2023-10-13T00:30:51;18.30;99.90
35240;DHT22;21376;50.954;4.716;2023-10-13T00:33:38;18.50;99.90
35240;DHT22;21376;50.954;4.716;2023-10-13T00:36:10;18.50;99.90
35240;DHT22;21376;50.954;4.716;2023-10-13T00:38:44;18.30;99.90
35240;DHT22;21376;50.954;4.716;2023-10-13T00:41:26;18.10;99.90
35240;DHT22;21376;50.954;4.716;2023-10-13T00:44:12;18.00;99.90
35240;DHT22;21376;50.954;4.716;2023-10-13T00:46:48;18.00;99.90
35240;DHT22;21376;50.954;4.716;2023-10-13T00:49:14;17.90;99.90
35240;DHT22;21376;50.954;4.716;2023-10-13T00:51:50;17.90;99.90
35240;DHT22;21376;50.954;4.716;2023-10-13T00:54:17;18.00;99.90
35240;DHT22;21376;50.954;4.716;2023-10-13T00:56:46;18.10;99.90
35240;DHT22;21376;50.954;4.716;2023-10-13T00:59:37;18.20;99.90
35240;DHT22;21376;50.954;4.716;2023-10-13T01:02:04;18.10;99.90
35240;DHT22;21376;50.954;4.716;2023-10-13T01:04:51;18.10;99.90
35240;DHT22;21376;50.954;4.716;2023-10-13T01:07:17;18.10;99.90
35240;DHT22;21376;50.954;4.716;2023-10-13T01:09:47;18.10;99.90
35240;DHT22;21376;50.954;4.716;2023-10-13T01:12:13;18.10;99.90
35240;DHT22;21376;50.954;4.716;2023-10-13T01:14:43;18.10;99.90
35240;DHT22;21376;50.954;4.716;2023-10-13T01:17:12;18.10;99.90
35240;DHT22;21376;50.954;4.716;2023-10-13T01:19:40;18.10;99.90
35240;DHT22;21376;50.954;4.716;2023-10-13T01:22:13;18.10;99.90
35240;DHT22;21376;50.954;4.716;2023-10-13T01:24:49;17.90;99.90
35240;DHT22;21376;50.954;4.716;2023-10-13T01:27:16;17.90;99.90
35240;DHT22;21376;50.954;4.716;2023-10-13T01:29:49;17.90;99.90
35240;DHT22;21376;50.954;4.716;2023-10-13T01:32:22;17.80;99.90
35240;DHT22;21376;50.954;4.716;2023-10-13T01:34:48;17.80;99.90
35240;DHT22;21376;50.954;4.716;2023-10-13T01:37:18;17.80;99.90
35240;DHT22;21376;50.954;4.716;2023-10-13T01:39:48;18.00;99.90
35240;DHT22;21376;50.954;4.716;2023-10-13T01:42:18;18.00;99.90
35240;DHT22;21376;50.954;4.716;2023-10-13T01:45:00;18.10;99.90
35240;DHT22;21376;50.954;4.716;2023-10-13T01:47:33;18.20;99.90
35240;DHT22;21376;50.954;4.716;2023-10-13T01:50:00;18.20;99.90
35240;DHT22;21376;50.954;4.716;2023-10-13T01:52:39;18.10;99.90
35240;DHT22;21376;50.954;4.716;2023-10-13T01:55:10;18.00;99.90
35240;DHT22;21376;50.954;4.716;2023-10-13T01:57:40;18.10;99.90
35240;DHT22;21376;50.954;4.716;2023-10-13T02:00:09;18.10;99.90
35240;DHT22;21376;50.954;4.716;2023-10-13T02:02:50;18.10;99.90
35240;DHT22;21376;50.954;4.716;2023-10-13T02:05:19;18.00;99.90
35240;DHT22;21376;50.954;4.716;2023-10-13T02:07:47;18.20;99.90
35240;DHT22;21376;50.954;4.716;2023-10-13T02:10:13;18.20;99.90
35240;DHT22;21376;50.954;4.716;2023-10-13T02:12:38;18.20;99.90
35240;DHT22;21376;50.954;4.716;2023-10-13T02:15:13;18.30;99.90
35240;DHT22;21376;50.954;4.716;2023-10-13T02:17:54;18.20;99.90
35240;DHT22;21376;50.954;4.716;2023-10-13T02:20:20;18.00;99.90
35240;DHT22;21376;50.954;4.716;2023-10-13T02:22:53;18.00;99.90
35240;DHT22;21376;50.954;4.716;2023-10-13T02:25:19;18.00;99.90
35240;DHT22;21376;50.954;4.716;2023-10-13T02:42:09;18.00;99.90
35240;DHT22;21376;50.954;4.716;2023-10-13T02:44:43;18.00;99.90
35240;DHT22;21376;50.954;4.716;2023-10-13T02:47:14;17.90;99.90
35240;DHT22;21376;50.954;4.716;2023-10-13T02:49:43;17.90;99.90
35240;DHT22;21376;50.954;4.716;2023-10-13T02:52:17;17.90;99.90
35240;DHT22;21376;50.954;4.716;2023-10-13T02:54:46;17.90;99.90
35240;DHT22;21376;50.954;4.716;2023-10-13T02:57:17;17.90;99.90
35240;DHT22;21376;50.954;4.716;2023-10-13T02:59:44;17.90;99.90
35240;DHT22;21376;50.954;4.716;2023-10-13T03:02:16;17.90;99.90
35240;DHT22;21376;50.954;4.716;2023-10-13T03:04:58;17.90;99.90
35240;DHT22;21376;50.954;4.716;2023-10-13T03:07:37;17.90;99.90
35240;DHT22;21376;50.954;4.716;2023-10-13T03:13:45;18.00;99.90
35240;DHT22;21376;50.954;4.716;2023-10-13T03:16:19;17.90;99.90
35240;DHT22;21376;50.954;4.716;2023-10-13T03:18:53;17.90;99.90
35240;DHT22;21376;50.954;4.716;2023-10-13T03:21:25;17.90;99.90
35240;DHT22;21376;50.954;4.716;2023-10-13T03:23:59;18.00;99.90
35240;DHT22;21376;50.954;4.716;2023-10-13T03:26:33;18.00;99.90
35240;DHT22;21376;50.954;4.716;2023-10-13T03:29:06;18.00;99.90
35240;DHT22;21376;50.954;4.716;2023-10-13T03:31:37;18.00;99.90
35240;DHT22;21376;50.954;4.716;2023-10-13T03:34:07;17.90;99.90
35240;DHT22;21376;50.954;4.716;2023-10-13T03:36:40;18.00;99.90
35240;DHT22;21376;50.954;4.716;2023-10-13T03:39:24;18.00;99.90
35240;DHT22;21376;50.954;4.716;2023-10-13T04:17:41;18.10;99.90
35240;DHT22;21376;50.954;4.716;2023-10-13T04:20:11;18.20;99.90
35240;DHT22;21376;50.954;4.716;2023-10-13T04:22:39;18.00;99.90
35240;DHT22;21376;50.954;4.716;2023-10-13T04:28:36;18.20;99.90
35240;DHT22;21376;50.954;4.716;2023-10-13T04:31:21;18.20;99.90
35240;DHT22;21376;50.954;4.716;2023-10-13T04:44:17;18.40;99.90
35240;DHT22;21376;50.954;4.716;2023-10-13T04:46:58;18.30;99.90
35240;DHT22;21376;50.954;4.716;2023-10-13T04:49:24;18.20;99.90
35240;DHT22;21376;50.954;4.716;2023-10-13T04:52:09;18.20;99.90
35240;DHT22;21376;50.954;4.716;2023-10-13T04:54:45;18.20;99.90
35240;DHT22;21376;50.954;4.716;2023-10-13T04:57:24;18.10;99.90
35240;DHT22;21376;50.954;4.716;2023-10-13T05:00:04;18.00;99.90
35240;DHT22;21376;50.954;4.716;2023-10-13T05:02:43;18.10;99.90
35240;DHT22;21376;50.954;4.716;2023-10-13T05:05:31;18.10;99.90
35240;DHT22;21376;50.954;4.716;2023-10-13T05:08:17;18.10;99.90
35240;DHT22;21376;50.954;4.716;2023-10-13T05:11:10;18.10;99.90
35240;DHT22;21376;50.954;4.716;2023-10-13T05:13:58;18.10;99.90
35240;DHT22;21376;50.954;4.716;2023-10-13T05:16:42;18.20;99.90
35240;DHT22;21376;50.954;4.716;2023-10-13T05:19:30;18.30;99.90
35240;DHT22;21376;50.954;4.716;2023-10-13T05:22:17;18.20;99.90
35240;DHT22;21376;50.954;4.716;2023-10-13T05:25:05;18.20;99.90
35240;DHT22;21376;50.954;4.716;2023-10-13T05:27:52;18.20;99.90
35240;DHT22;21376;50.954;4.716;2023-10-13T05:30:36;18.10;99.90
35240;DHT22;21376;50.954;4.716;2023-10-13T05:33:24;18.20;99.90
35240;DHT22;21376;50.954;4.716;2023-10-13T05:36:14;18.30;99.90
35240;DHT22;21376;50.954;4.716;2023-10-13T05:39:01;18.20;99.90
35240;DHT22;21376;50.954;4.716;2023-10-13T05:41:48;18.40;99.90
35240;DHT22;21376;50.954;4.716;2023-10-13T05:44:36;18.20;99.90
35240;DHT22;21376;50.954;4.716;2023-10-13T05:47:23;18.30;99.90
35240;DHT22;21376;50.954;4.716;2023-10-13T05:50:16;18.30;99.90
35240;DHT22;21376;50.954;4.716;2023-10-13T05:59:47;18.10;99.90
35240;DHT22;21376;50.954;4.716;2023-10-13T06:02:34;18.10;99.90
35240;DHT22;21376;50.954;4.716;2023-10-13T06:05:22;18.10;99.90
35240;DHT22;21376;50.954;4.716;2023-10-13T06:08:10;18.10;99.90
35240;DHT22;21376;50.954;4.716;2023-10-13T06:11:07;18.20;99.90
35240;DHT22;21376;50.954;4.716;2023-10-13T06:13:54;18.10;99.90
35240;DHT22;21376;50.954;4.716;2023-10-13T06:16:41;18.00;99.90
35240;DHT22;21376;50.954;4.716;2023-10-13T06:19:28;18.00;99.90
35240;DHT22;21376;50.954;4.716;2023-10-13T06:22:18;18.10;99.90
35240;DHT22;21376;50.954;4.716;2023-10-13T06:25:06;18.00;99.90
35240;DHT22;21376;50.954;4.716;2023-10-13T06:27:53;18.00;99.90
35240;DHT22;21376;50.954;4.716;2023-10-13T06:30:54;18.10;99.90
35240;DHT22;21376;50.954;4.716;2023-10-13T06:33:25;18.10;99.90
35240;DHT22;21376;50.954;4.716;2023-10-13T06:36:04;18.10;99.90
35240;DHT22;21376;50.954;4.716;2023-10-13T06:38:38;18.10;99.90
35240;DHT22;21376;50.954;4.716;2023-10-13T06:41:06;18.20;99.90
35240;DHT22;21376;50.954;4.716;2023-10-13T06:43:36;18.20;99.90
35240;DHT22;21376;50.954;4.716;2023-10-13T06:46:12;18.30;99.90
35240;DHT22;21376;50.954;4.716;2023-10-13T06:48:51;18.30;99.90
35240;DHT22;21376;50.954;4.716;2023-10-13T06:51:20;18.40;99.90
35240;DHT22;21376;50.954;4.716;2023-10-13T06:53:59;18.40;99.90
35240;DHT22;21376;50.954;4.716;2023-10-13T06:56:26;18.30;99.90
35240;DHT22;21376;50.954;4.716;2023-10-13T06:58:58;18.50;99.90
35240;DHT22;21376;50.954;4.716;2023-10-13T07:01:31;18.60;99.90
35240;DHT22;21376;50.954;4.716;2023-10-13T07:04:09;18.80;99.90
35240;DHT22;21376;50.954;4.716;2023-10-13T07:06:42;18.70;99.90
35240;DHT22;21376;50.954;4.716;2023-10-13T07:09:13;18.80;99.90
35240;DHT22;21376;50.954;4.716;2023-10-13T07:12:15;19.10;99.90
35240;DHT22;21376;50.954;4.716;2023-10-13T07:14:50;19.40;99.90
35240;DHT22;21376;50.954;4.716;2023-10-13T07:17:24;19.60;99.90
35240;DHT22;21376;50.954;4.716;2023-10-13T07:26:06;19.80;99.90
35240;DHT22;21376;50.954;4.716;2023-10-13T07:28:35;19.50;99.90
35240;DHT22;21376;50.954;4.716;2023-10-13T07:31:15;19.70;99.90
35240;DHT22;21376;50.954;4.716;2023-10-13T07:33:44;20.40;99.90
35240;DHT22;21376;50.954;4.716;2023-10-13T07:36:13;20.70;99.90
35240;DHT22;21376;50.954;4.716;2023-10-13T07:39:02;20.80;99.90
35240;DHT22;21376;50.954;4.716;2023-10-13T07:42:27;20.60;99.90
35240;DHT22;21376;50.954;4.716;2023-10-13T07:45:10;20.30;99.90
35240;DHT22;21376;50.954;4.716;2023-10-13T07:47:41;20.40;99.90
35240;DHT22;21376;50.954;4.716;2023-10-13T07:50:13;20.40;99.90
35240;DHT22;21376;50.954;4.716;2023-10-13T07:52:42;20.40;99.90
35240;DHT22;21376;50.954;4.716;2023-10-13T07:55:24;20.10;99.90
35240;DHT22;21376;50.954;4.716;2023-10-13T07:57:51;20.10;99.90
35240;DHT22;21376;50.954;4.716;2023-10-13T08:00:24;20.10;99.90
35240;DHT22;21376;50.954;4.716;2023-10-13T08:03:08;20.00;99.90
35240;DHT22;21376;50.954;4.716;2023-10-13T08:05:53;20.20;99.90
35240;DHT22;21376;50.954;4.716;2023-10-13T08:08:35;20.30;99.90
35240;DHT22;21376;50.954;4.716;2023-10-13T08:11:08;20.70;99.90
35240;DHT22;21376;50.954;4.716;2023-10-13T08:13:46;20.70;99.90
35240;DHT22;21376;50.954;4.716;2023-10-13T08:16:15;20.60;99.90
35240;DHT22;21376;50.954;4.716;2023-10-13T08:18:51;20.80;99.90
35240;DHT22;21376;50.954;4.716;2023-10-13T08:21:21;20.90;99.90
35240;DHT22;21376;50.954;4.716;2023-10-13T08:23:54;21.20;99.90
35240;DHT22;21376;50.954;4.716;2023-10-13T08:32:57;21.10;99.90
35240;DHT22;21376;50.954;4.716;2023-10-13T08:35:25;21.40;99.90
35240;DHT22;21376;50.954;4.716;2023-10-13T08:38:03;21.20;99.90
35240;DHT22;21376;50.954;4.716;2023-10-13T08:40:43;21.00;99.90
35240;DHT22;21376;50.954;4.716;2023-10-13T08:43:36;20.80;99.90
35240;DHT22;21376;50.954;4.716;2023-10-13T08:46:09;20.80;99.90
35240;DHT22;21376;50.954;4.716;2023-10-13T08:48:35;20.80;99.90
35240;DHT22;21376;50.954;4.716;2023-10-13T08:51:03;21.00;99.90
35240;DHT22;21376;50.954;4.716;2023-10-13T08:53:35;21.00;99.90
35240;DHT22;21376;50.954;4.716;2023-10-13T08:56:15;21.40;99.90
35240;DHT22;21376;50.954;4.716;2023-10-13T08:58:48;22.20;99.90
35240;DHT22;21376;50.954;4.716;2023-10-13T09:01:31;22.00;99.90
35240;DHT22;21376;50.954;4.716;2023-10-13T09:04:04;21.80;99.90
35240;DHT22;21376;50.954;4.716;2023-10-13T09:07:14;21.50;99.90
35240;DHT22;21376;50.954;4.716;2023-10-13T09:09:52;21.20;99.90
35240;DHT22;21376;50.954;4.716;2023-10-13T09:12:22;21.10;99.90
35240;DHT22;21376;50.954;4.716;2023-10-13T09:15:09;21.10;99.90
35240;DHT22;21376;50.954;4.716;2023-10-13T09:17:49;21.20;99.90
35240;DHT22;21376;50.954;4.716;2023-10-13T09:20:59;21.20;99.90
35240;DHT22;21376;50.954;4.716;2023-10-13T09:23:53;21.30;99.90
35240;DHT22;21376;50.954;4.716;2023-10-13T09:26:40;21.20;99.90
35240;DHT22;21376;50.954;4.716;2023-10-13T09:29:22;21.20;99.90
35240;DHT22;21376;50.954;4.716;2023-10-13T09:32:03;21.10;99.90
35240;DHT22;21376;50.954;4.716;2023-10-13T09:34:32;21.40;99.90
35240;DHT22;21376;50.954;4.716;2023-10-13T09:37:01;21.40;99.90
35240;DHT22;21376;50.954;4.716;2023-10-13T09:39:33;21.50;99.90
35240;DHT22;21376;50.954;4.716;2023-10-13T09:42:30;21.60;99.90
35240;DHT22;21376;50.954;4.716;2023-10-13T09:45:06;21.70;99.90
35240;DHT22;21376;50.954;4.716;2023-10-13T09:47:52;21.80;99.90
35240;DHT22;21376;50.954;4.716;2023-10-13T09:50:20;21.70;99.90
35240;DHT22;21376;50.954;4.716;2023-10-13T09:52:55;21.90;99.90
35240;DHT22;21376;50.954;4.716;2023-10-13T09:55:30;22.00;99.90
35240;DHT22;21376;50.954;4.716;2023-10-13T09:58:09;22.00;99.90
35240;DHT22;21376;50.954;4.716;2023-10-13T10:04:18;22.50;99.90
35240;DHT22;21376;50.954;4.716;2023-10-13T10:06:59;22.90;99.90
35240;DHT22;21376;50.954;4.716;2023-10-13T10:09:30;23.30;99.90
35240;DHT22;21376;50.954;4.716;2023-10-13T10:18:24;23.10;99.90
35240;DHT22;21376;50.954;4.716;2023-10-13T10:21:04;22.80;99.90
35240;DHT22;21376;50.954;4.716;2023-10-13T10:23:39;22.80;99.90
35240;DHT22;21376;50.954;4.716;2023-10-13T10:26:24;22.80;99.90
35240;DHT22;21376;50.954;4.716;2023-10-13T10:29:12;23.10;99.90
35240;DHT22;21376;50.954;4.716;2023-10-13T10:31:43;23.00;99.90
35240;DHT22;21376;50.954;4.716;2023-10-13T10:34:18;22.70;99.90
35240;DHT22;21376;50.954;4.716;2023-10-13T10:36:53;22.90;99.90
35240;DHT22;21376;50.954;4.716;2023-10-13T10:39:32;22.80;99.90
35240;DHT22;21376;50.954;4.716;2023-10-13T10:42:14;23.10;99.90
35240;DHT22;21376;50.954;4.716;2023-10-13T10:44:58;23.60;99.90
35240;DHT22;21376;50.954;4.716;2023-10-13T10:47:34;23.70;99.90
35240;DHT22;21376;50.954;4.716;2023-10-13T10:50:08;23.70;99.90
35240;DHT22;21376;50.954;4.716;2023-10-13T10:53:07;23.70;99.90
35240;DHT22;21376;50.954;4.716;2023-10-13T10:55:36;23.50;99.90
35240;DHT22;21376;50.954;4.716;2023-10-13T10:58:14;23.50;99.90
35240;DHT22;21376;50.954;4.716;2023-10-13T11:01:15;23.20;99.90
35240;DHT22;21376;50.954;4.716;2023-10-13T11:04:09;23.20;99.90
35240;DHT22;21376;50.954;4.716;2023-10-13T11:07:06;23.90;99.90
35240;DHT22;21376;50.954;4.716;2023-10-13T11:09:35;24.50;99.90
35240;DHT22;21376;50.954;4.716;2023-10-13T11:12:13;24.70;99.90
35240;DHT22;21376;50.954;4.716;2023-10-13T11:15:10;24.50;99.90
35240;DHT22;21376;50.954;4.716;2023-10-13T11:17:49;24.60;99.90
35240;DHT22;21376;50.954;4.716;2023-10-13T11:33:55;24.40;99.90
35240;DHT22;21376;50.954;4.716;2023-10-13T11:39:26;24.60;99.90
35240;DHT22;21376;50.954;4.716;2023-10-13T11:42:12;24.80;99.90
35240;DHT22;21376;50.954;4.716;2023-10-13T11:44:40;24.90;99.90
35240;DHT22;21376;50.954;4.716;2023-10-13T11:47:20;24.80;99.90
35240;DHT22;21376;50.954;4.716;2023-10-13T11:50:16;24.60;99.90
35240;DHT22;21376;50.954;4.716;2023-10-13T11:53:01;24.50;99.90
35240;DHT22;21376;50.954;4.716;2023-10-13T12:03:24;24.10;99.90
35240;DHT22;21376;50.954;4.716;2023-10-13T12:06:28;24.20;99.90
35240;DHT22;21376;50.954;4.716;2023-10-13T12:09:05;24.10;99.90
35240;DHT22;21376;50.954;4.716;2023-10-13T12:11:43;24.30;99.90
35240;DHT22;21376;50.954;4.716;2023-10-13T12:14:14;24.40;99.90
35240;DHT22;21376;50.954;4.716;2023-10-13T13:16:32;22.80;99.90
35240;DHT22;21376;50.954;4.716;2023-10-13T13:21:58;22.90;99.90
35240;DHT22;21376;50.954;4.716;2023-10-13T13:24:29;23.20;99.90
35240;DHT22;21376;50.954;4.716;2023-10-13T13:26:56;23.40;99.90
35240;DHT22;21376;50.954;4.716;2023-10-13T13:29:31;23.40;99.90
35240;DHT22;21376;50.954;4.716;2023-10-13T13:37:07;23.60;99.90
35240;DHT22;21376;50.954;4.716;2023-10-13T13:39:35;23.70;99.90
35240;DHT22;21376;50.954;4.716;2023-10-13T13:42:18;23.70;99.90
35240;DHT22;21376;50.954;4.716;2023-10-13T13:44:49;23.60;99.90
35240;DHT22;21376;50.954;4.716;2023-10-13T13:53:55;23.20;99.90
35240;DHT22;21376;50.954;4.716;2023-10-13T13:56:22;23.10;99.90
35240;DHT22;21376;50.954;4.716;2023-10-13T13:58:51;23.20;99.90
35240;DHT22;21376;50.954;4.716;2023-10-13T14:01:20;23.40;99.90
35240;DHT22;21376;50.954;4.716;2023-10-13T14:03:54;23.60;99.90
35240;DHT22;21376;50.954;4.716;2023-10-13T14:06:30;23.70;99.90
35240;DHT22;21376;50.954;4.716;2023-10-13T14:09:00;23.70;99.90
35240;DHT22;21376;50.954;4.716;2023-10-13T14:11:45;23.40;99.90
35240;DHT22;21376;50.954;4.716;2023-10-13T14:17:27;23.40;99.90
35240;DHT22;21376;50.954;4.716;2023-10-13T14:19:58;23.30;99.90
35240;DHT22;21376;50.954;4.716;2023-10-13T14:22:43;23.20;99.90
35240;DHT22;21376;50.954;4.716;2023-10-13T14:25:50;23.30;99.90
35240;DHT22;21376;50.954;4.716;2023-10-13T14:28:27;23.40;99.90
35240;DHT22;21376;50.954;4.716;2023-10-13T14:31:06;23.30;99.90
35240;DHT22;21376;50.954;4.716;2023-10-13T14:33:41;23.30;99.90
35240;DHT22;21376;50.954;4.716;2023-10-13T14:36:10;23.20;99.90
35240;DHT22;21376;50.954;4.716;2023-10-13T14:38:39;23.20;99.90
35240;DHT22;21376;50.954;4.716;2023-10-13T14:41:13;23.10;99.90
35240;DHT22;21376;50.954;4.716;2023-10-13T14:43:47;23.00;99.90
35240;DHT22;21376;50.954;4.716;2023-10-13T14:46:20;23.00;99.90
35240;DHT22;21376;50.954;4.716;2023-10-13T14:48:54;23.10;99.90
35240;DHT22;21376;50.954;4.716;2023-10-13T14:51:45;23.00;99.90
35240;DHT22;21376;50.954;4.716;2023-10-13T14:54:17;22.80;99.90
35240;DHT22;21376;50.954;4.716;2023-10-13T14:56:43;22.80;99.90
35240;DHT22;21376;50.954;4.716;2023-10-13T14:59:10;22.70;99.90
35240;DHT22;21376;50.954;4.716;2023-10-13T15:01:47;22.60;99.90
35240;DHT22;21376;50.954;4.716;2023-10-13T15:04:15;22.60;99.90
35240;DHT22;21376;50.954;4.716;2023-10-13T15:06:43;22.60;99.90
35240;DHT22;21376;50.954;4.716;2023-10-13T15:09:09;22.40;99.90
35240;DHT22;21376;50.954;4.716;2023-10-13T15:11:37;22.20;99.90
35240;DHT22;21376;50.954;4.716;2023-10-13T15:14:06;22.00;99.90
35240;DHT22;21376;50.954;4.716;2023-10-13T15:16:42;21.80;99.90
35240;DHT22;21376;50.954;4.716;2023-10-13T15:19:28;21.60;99.90
35240;DHT22;21376;50.954;4.716;2023-10-13T15:22:09;21.40;99.90
35240;DHT22;21376;50.954;4.716;2023-10-13T15:24:43;21.30;99.90
35240;DHT22;21376;50.954;4.716;2023-10-13T15:27:12;21.40;99.90
35240;DHT22;21376;50.954;4.716;2023-10-13T15:29:37;21.40;99.90
35240;DHT22;21376;50.954;4.716;2023-10-13T15:32:15;21.50;99.90
35240;DHT22;21376;50.954;4.716;2023-10-13T15:35:00;21.60;99.90
35240;DHT22;21376;50.954;4.716;2023-10-13T15:37:27;21.50;99.90
35240;DHT22;21376;50.954;4.716;2023-10-13T15:39:55;21.50;99.90
35240;DHT22;21376;50.954;4.716;2023-10-13T15:42:26;21.30;99.90
35240;DHT22;21376;50.954;4.716;2023-10-13T15:44:52;21.10;99.90
35240;DHT22;21376;50.954;4.716;2023-10-13T15:47:19;20.80;99.90
35240;DHT22;21376;50.954;4.716;2023-10-13T15:49:46;20.70;99.90
35240;DHT22;21376;50.954;4.716;2023-10-13T15:52:15;20.70;99.90
35240;DHT22;21376;50.954;4.716;2023-10-13T15:54:44;20.70;99.90
35240;DHT22;21376;50.954;4.716;2023-10-13T15:57:13;20.70;99.90
35240;DHT22;21376;50.954;4.716;2023-10-13T15:59:42;20.70;99.90
35240;DHT22;21376;50.954;4.716;2023-10-13T16:02:14;20.80;99.90
35240;DHT22;21376;50.954;4.716;2023-10-13T16:04:45;20.60;99.90
35240;DHT22;21376;50.954;4.716;2023-10-13T16:07:10;20.60;99.90
35240;DHT22;21376;50.954;4.716;2023-10-13T16:09:36;20.70;99.90
35240;DHT22;21376;50.954;4.716;2023-10-13T16:12:03;20.80;99.90
35240;DHT22;21376;50.954;4.716;2023-10-13T16:14:30;20.90;99.90
35240;DHT22;21376;50.954;4.716;2023-10-13T16:17:05;20.90;99.90
35240;DHT22;21376;50.954;4.716;2023-10-13T16:19:38;20.90;99.90
35240;DHT22;21376;50.954;4.716;2023-10-13T16:22:12;20.90;99.90
35240;DHT22;21376;50.954;4.716;2023-10-13T16:24:41;20.90;99.90
35240;DHT22;21376;50.954;4.716;2023-10-13T16:27:11;20.90;99.90
35240;DHT22;21376;50.954;4.716;2023-10-13T16:29:40;20.80;99.90
35240;DHT22;21376;50.954;4.716;2023-10-13T16:32:10;20.40;99.90
35240;DHT22;21376;50.954;4.716;2023-10-13T16:34:39;20.10;99.90
35240;DHT22;21376;50.954;4.716;2023-10-13T16:37:04;19.80;99.90
35240;DHT22;21376;50.954;4.716;2023-10-13T16:39:30;19.70;99.90
35240;DHT22;21376;50.954;4.716;2023-10-13T16:41:57;19.70;99.90
35240;DHT22;21376;50.954;4.716;2023-10-13T16:44:23;19.70;99.90
35240;DHT22;21376;50.954;4.716;2023-10-13T16:46:55;19.80;99.90
35240;DHT22;21376;50.954;4.716;2023-10-13T16:49:27;19.60;99.90
35240;DHT22;21376;50.954;4.716;2023-10-13T16:51:56;19.50;99.90
35240;DHT22;21376;50.954;4.716;2023-10-13T16:54:28;19.40;99.90
35240;DHT22;21376;50.954;4.716;2023-10-13T16:56:53;19.30;99.90
35240;DHT22;21376;50.954;4.716;2023-10-13T16:59:23;19.20;99.90
35240;DHT22;21376;50.954;4.716;2023-10-13T17:01:51;19.30;99.90
35240;DHT22;21376;50.954;4.716;2023-10-13T17:04:20;19.20;99.90
35240;DHT22;21376;50.954;4.716;2023-10-13T17:06:49;19.10;99.90
35240;DHT22;21376;50.954;4.716;2023-10-13T17:09:15;19.20;99.90
35240;DHT22;21376;50.954;4.716;2023-10-13T17:11:41;18.90;99.90
35240;DHT22;21376;50.954;4.716;2023-10-13T17:14:32;19.10;99.90
35240;DHT22;21376;50.954;4.716;2023-10-13T17:20:06;19.20;99.90
35240;DHT22;21376;50.954;4.716;2023-10-13T17:22:36;19.10;99.90
35240;DHT22;21376;50.954;4.716;2023-10-13T17:31:21;19.00;99.90
35240;DHT22;21376;50.954;4.716;2023-10-13T17:34:18;19.20;99.90
35240;DHT22;21376;50.954;4.716;2023-10-13T17:36:47;19.20;99.90
35240;DHT22;21376;50.954;4.716;2023-10-13T17:39:29;19.60;99.90
35240;DHT22;21376;50.954;4.716;2023-10-13T17:42:04;19.50;99.90
35240;DHT22;21376;50.954;4.716;2023-10-13T17:44:30;19.60;99.90
35240;DHT22;21376;50.954;4.716;2023-10-13T17:46:56;19.60;99.90
35240;DHT22;21376;50.954;4.716;2023-10-13T17:49:27;19.70;99.90
35240;DHT22;21376;50.954;4.716;2023-10-13T17:51:56;19.60;99.90
35240;DHT22;21376;50.954;4.716;2023-10-13T17:54:32;19.60;99.90
35240;DHT22;21376;50.954;4.716;2023-10-13T17:57:01;19.70;99.90
35240;DHT22;21376;50.954;4.716;2023-10-13T17:59:35;19.70;99.90
35240;DHT22;21376;50.954;4.716;2023-10-13T18:02:42;19.80;99.90
35240;DHT22;21376;50.954;4.716;2023-10-13T18:05:29;19.70;99.90
35240;DHT22;21376;50.954;4.716;2023-10-13T18:08:04;19.90;99.90
35240;DHT22;21376;50.954;4.716;2023-10-13T18:10:51;20.00;99.90
35240;DHT22;21376;50.954;4.716;2023-10-13T18:13:18;20.10;99.90
35240;DHT22;21376;50.954;4.716;2023-10-13T18:15:47;20.20;99.90
35240;DHT22;21376;50.954;4.716;2023-10-13T18:18:50;20.20;99.90
35240;DHT22;21376;50.954;4.716;2023-10-13T18:21:17;20.30;99.90
35240;DHT22;21376;50.954;4.716;2023-10-13T18:26:48;20.40;99.90
35240;DHT22;21376;50.954;4.716;2023-10-13T18:29:18;20.40;99.90
35240;DHT22;21376;50.954;4.716;2023-10-13T18:31:54;20.40;99.90
35240;DHT22;21376;50.954;4.716;2023-10-13T18:34:34;20.30;99.90
35240;DHT22;21376;50.954;4.716;2023-10-13T18:37:18;20.20;99.90
35240;DHT22;21376;50.954;4.716;2023-10-13T18:39:47;19.70;99.90
35240;DHT22;21376;50.954;4.716;2023-10-13T18:42:29;19.50;99.90
35240;DHT22;21376;50.954;4.716;2023-10-13T18:44:58;19.10;99.90
35240;DHT22;21376;50.954;4.716;2023-10-13T18:47:27;19.10;99.90
35240;DHT22;21376;50.954;4.716;2023-10-13T18:50:10;19.00;99.90
35240;DHT22;21376;50.954;4.716;2023-10-13T18:52:40;19.00;99.90
35240;DHT22;21376;50.954;4.716;2023-10-13T18:55:10;18.80;99.90
35240;DHT22;21376;50.954;4.716;2023-10-13T18:57:42;18.80;99.90
35240;DHT22;21376;50.954;4.716;2023-10-13T19:00:14;18.80;99.90
35240;DHT22;21376;50.954;4.716;2023-10-13T19:02:44;18.90;99.90
35240;DHT22;21376;50.954;4.716;2023-10-13T19:05:15;18.90;99.90
35240;DHT22;21376;50.954;4.716;2023-10-13T19:07:44;18.90;99.90
35240;DHT22;21376;50.954;4.716;2023-10-13T19:10:10;19.00;99.90
35240;DHT22;21376;50.954;4.716;2023-10-13T19:12:45;19.00;99.90
35240;DHT22;21376;50.954;4.716;2023-10-13T19:15:15;19.00;99.90
35240;DHT22;21376;50.954;4.716;2023-10-13T19:17:44;19.00;99.90
35240;DHT22;21376;50.954;4.716;2023-10-13T19:20:10;19.10;99.90
35240;DHT22;21376;50.954;4.716;2023-10-13T19:22:44;19.20;99.90
35240;DHT22;21376;50.954;4.716;2023-10-13T19:25:20;19.30;99.90
35240;DHT22;21376;50.954;4.716;2023-10-13T19:27:49;19.30;99.90
35240;DHT22;21376;50.954;4.716;2023-10-13T19:30:15;19.30;99.90
35240;DHT22;21376;50.954;4.716;2023-10-13T19:32:46;19.30;99.90
35240;DHT22;21376;50.954;4.716;2023-10-13T19:35:13;19.30;99.90
35240;DHT22;21376;50.954;4.716;2023-10-13T19:37:47;19.30;99.90
35240;DHT22;21376;50.954;4.716;2023-10-13T19:40:13;19.50;99.90
35240;DHT22;21376;50.954;4.716;2023-10-13T19:42:39;19.40;99.90
35240;DHT22;21376;50.954;4.716;2023-10-13T19:45:14;19.30;99.90
35240;DHT22;21376;50.954;4.716;2023-10-13T19:47:53;19.30;99.90
35240;DHT22;21376;50.954;4.716;2023-10-13T19:50:22;19.30;99.90
35240;DHT22;21376;50.954;4.716;2023-10-13T19:52:47;19.40;99.90
35240;DHT22;21376;50.954;4.716;2023-10-13T19:55:17;19.30;99.90
35240;DHT22;21376;50.954;4.716;2023-10-13T19:57:45;19.30;99.90